createdAt,value
2022-09-23T00:01:23.367Z,2.10
2022-09-23T00:03:51.217Z,1.43
2022-09-23T00:06:21.517Z,1.80
2022-09-23T00:08:50.200Z,1.60
2022-09-23T00:11:19.938Z,1.83
2022-09-23T00:13:49.529Z,1.80
2022-09-23T00:16:20.059Z,1.80
2022-09-23T00:18:50.413Z,1.77
2022-09-23T00:21:19.399Z,1.40
2022-09-23T00:23:47.152Z,2.13
2022-09-23T00:26:18.944Z,1.80
2022-09-23T00:28:47.700Z,1.63
2022-09-23T00:31:17.726Z,1.43
2022-09-23T00:33:45.590Z,2.13
2022-09-23T00:36:16.352Z,1.70
2022-09-23T00:38:45.155Z,1.70
2022-09-23T00:41:15.554Z,1.53
2022-09-23T00:43:45.651Z,2.00
2022-09-23T00:46:17.874Z,1.60
2022-09-23T00:48:46.607Z,1.87
2022-09-23T00:51:19.258Z,1.90
2022-09-23T00:53:48.431Z,1.80
2022-09-23T00:56:16.873Z,1.60
2022-09-23T00:58:46.458Z,1.80
2022-09-23T01:01:14.923Z,1.80
2022-09-23T01:03:45.689Z,1.87
2022-09-23T01:06:14.101Z,1.83
2022-09-23T01:08:45.480Z,1.70
2022-09-23T01:11:25.351Z,1.70
2022-09-23T01:14:01.181Z,1.90
2022-09-23T01:16:34.817Z,1.80
2022-09-23T01:19:12.195Z,1.43
2022-09-23T01:21:48.289Z,1.90
2022-09-23T01:24:48.355Z,1.90
2022-09-23T01:27:29.511Z,1.67
2022-09-23T01:30:11.037Z,1.80
2022-09-23T01:32:56.824Z,1.87
2022-09-23T01:35:30.791Z,1.90
2022-09-23T01:38:09.661Z,1.77
2022-09-23T01:40:49.181Z,1.60
2022-09-23T01:43:23.322Z,1.70
2022-09-23T01:45:56.344Z,1.80
2022-09-23T01:48:33.606Z,1.80
2022-09-23T01:51:07.058Z,1.50
2022-09-23T01:53:43.186Z,1.80
2022-09-23T01:56:15.087Z,1.77
2022-09-23T01:58:47.542Z,1.43
2022-09-23T02:01:19.924Z,1.80
2022-09-23T02:03:55.271Z,2.03
2022-09-23T02:06:26.242Z,1.60
2022-09-23T02:09:00.785Z,1.90
2022-09-23T02:11:29.176Z,1.80
2022-09-23T02:14:00.756Z,2.10
2022-09-23T02:16:32.940Z,1.70
2022-09-23T02:19:08.133Z,1.60
2022-09-23T02:21:39.315Z,1.90
2022-09-23T02:24:12.418Z,1.83
2022-09-23T02:26:48.004Z,1.93
2022-09-23T02:29:21.602Z,2.13
2022-09-23T02:31:57.910Z,1.90
2022-09-23T02:34:37.793Z,1.70
2022-09-23T02:37:12.607Z,1.60
2022-09-23T02:39:54.575Z,1.93
2022-09-23T02:42:25.313Z,2.13
2022-09-23T02:44:53.128Z,1.87
2022-09-23T02:47:26.035Z,1.70
2022-09-23T02:49:56.313Z,2.00
2022-09-23T02:52:24.887Z,2.03
2022-09-23T02:54:53.461Z,2.00
2022-09-23T02:57:21.543Z,2.33
2022-09-23T02:59:50.465Z,2.50
2022-09-23T03:02:39.949Z,2.40
2022-09-23T03:05:18.143Z,2.57
2022-09-23T03:07:53.933Z,3.20
2022-09-23T03:10:24.629Z,3.13
2022-09-23T03:13:05.939Z,3.23
2022-09-23T03:15:38.581Z,3.30
2022-09-23T03:18:15.415Z,4.27
2022-09-23T03:20:50.562Z,4.60
2022-09-23T03:23:25.078Z,5.33
2022-09-23T03:25:55.328Z,4.70
2022-09-23T03:28:25.382Z,5.30
2022-09-23T03:30:55.236Z,4.83
2022-09-23T03:33:28.841Z,4.87
2022-09-23T03:36:19.140Z,4.63
2022-09-23T03:38:52.740Z,4.80
2022-09-23T03:41:28.873Z,5.10
2022-09-23T03:43:58.333Z,5.60
2022-09-23T03:46:27.478Z,5.13
2022-09-23T03:49:00.684Z,4.50
2022-09-23T03:51:29.740Z,5.00
2022-09-23T03:53:57.493Z,4.77
2022-09-23T03:56:25.287Z,5.33
2022-09-23T03:58:53.167Z,4.43
2022-09-23T04:01:20.974Z,4.53
2022-09-23T04:03:49.079Z,4.33
2022-09-23T04:06:16.898Z,3.93
2022-09-23T04:08:46.026Z,4.70
2022-09-23T04:11:13.978Z,4.13
2022-09-23T04:13:41.837Z,3.87
2022-09-23T04:16:09.586Z,3.70
2022-09-23T04:18:37.333Z,3.90
2022-09-23T04:21:05.353Z,4.17
2022-09-23T04:23:33.075Z,3.90
2022-09-23T04:26:02.156Z,3.80
2022-09-23T04:28:29.903Z,3.83
2022-09-23T04:30:57.885Z,3.70
2022-09-23T04:33:26.256Z,3.90
2022-09-23T04:35:54.517Z,3.53
2022-09-23T04:38:22.417Z,3.37
2022-09-23T04:40:50.312Z,3.60
2022-09-23T04:43:23.342Z,3.20
2022-09-23T04:45:59.463Z,2.97
2022-09-23T04:48:27.736Z,3.60
2022-09-23T04:50:55.660Z,3.10
2022-09-23T04:53:23.439Z,3.27
2022-09-23T04:55:52.222Z,3.50
2022-09-23T04:58:23.059Z,3.37
2022-09-23T05:00:50.812Z,3.17
2022-09-23T05:03:18.649Z,2.90
2022-09-23T05:05:46.346Z,3.20
2022-09-23T05:08:14.095Z,2.30
2022-09-23T05:10:42.461Z,2.70
2022-09-23T05:13:10.241Z,3.10
2022-09-23T05:15:39.317Z,2.70
2022-09-23T05:18:07.027Z,2.53
2022-09-23T05:20:34.711Z,3.23
2022-09-23T05:23:02.630Z,3.10
2022-09-23T05:25:30.403Z,2.60
2022-09-23T05:27:58.587Z,2.27
2022-09-23T05:30:26.449Z,2.80
2022-09-23T05:32:55.599Z,2.90
2022-09-23T05:35:23.356Z,2.70
2022-09-23T05:37:51.094Z,2.63
2022-09-23T05:40:19.020Z,2.77
2022-09-23T05:42:46.759Z,2.50
2022-09-23T05:45:15.100Z,3.20
2022-09-23T05:47:44.140Z,2.70
2022-09-23T05:50:13.260Z,2.57
2022-09-23T05:52:41.319Z,2.33
2022-09-23T05:55:09.735Z,2.73
2022-09-23T05:57:37.433Z,2.30
2022-09-23T06:00:06.126Z,2.20
2022-09-23T06:02:34.679Z,2.50
2022-09-23T06:05:02.475Z,2.97
2022-09-23T06:07:31.611Z,2.50
2022-09-23T06:09:59.467Z,2.97
2022-09-23T06:12:27.182Z,2.83
2022-09-23T06:14:54.957Z,2.50
2022-09-23T06:17:22.680Z,2.63
2022-09-23T06:19:50.450Z,2.47
2022-09-23T06:22:18.647Z,2.70
2022-09-23T06:24:47.694Z,3.00
2022-09-23T06:27:15.573Z,3.37
2022-09-23T06:29:43.880Z,2.90
2022-09-23T06:32:11.638Z,2.70
2022-09-23T06:34:51.239Z,2.90
2022-09-23T06:37:20.776Z,2.53
2022-09-23T06:39:50.147Z,2.63
2022-09-23T06:42:18.431Z,2.47
2022-09-23T06:44:46.281Z,2.47
2022-09-23T06:47:14.343Z,2.77
2022-09-23T06:49:42.040Z,2.10
2022-09-23T06:52:09.789Z,2.63
2022-09-23T06:54:38.027Z,2.60
2022-09-23T06:57:07.497Z,2.67
2022-09-23T06:59:35.627Z,2.50
2022-09-23T07:02:03.721Z,2.80
2022-09-23T07:04:31.617Z,2.43
2022-09-23T07:06:59.417Z,2.53
2022-09-23T07:09:28.044Z,2.20
2022-09-23T07:11:55.754Z,2.53
2022-09-23T07:14:25.343Z,2.10
2022-09-23T07:16:54.124Z,2.30
2022-09-23T07:19:22.124Z,2.07
2022-09-23T07:21:49.922Z,2.03
2022-09-23T07:24:18.119Z,2.30
2022-09-23T07:26:47.230Z,3.17
2022-09-23T07:29:15.442Z,2.13
2022-09-23T07:31:44.706Z,2.47
2022-09-23T07:34:12.657Z,2.03
2022-09-23T07:36:41.513Z,1.67
2022-09-23T07:39:11.950Z,2.13
2022-09-23T07:41:41.641Z,1.90
2022-09-23T07:44:11.136Z,2.00
2022-09-23T07:46:40.029Z,1.90
2022-09-23T07:49:10.469Z,1.80
2022-09-23T07:51:40.106Z,1.80
2022-09-23T07:54:11.348Z,1.87
2022-09-23T07:56:39.780Z,1.80
2022-09-23T07:59:10.017Z,1.60
2022-09-23T08:01:40.552Z,1.90
2022-09-23T08:04:12.970Z,2.50
2022-09-23T08:06:43.219Z,2.60
2022-09-23T08:09:11.735Z,2.27
2022-09-23T08:11:42.051Z,2.00
2022-09-23T08:14:10.682Z,1.70
2022-09-23T08:16:39.762Z,1.87
2022-09-23T08:19:09.386Z,2.00
2022-09-23T08:21:39.244Z,2.00
2022-09-23T08:24:07.290Z,2.53
2022-09-23T08:26:35.390Z,1.90
2022-09-23T08:29:03.190Z,1.80
2022-09-23T08:31:30.958Z,1.60
2022-09-23T08:34:00.121Z,1.40
2022-09-23T08:36:29.615Z,1.70
2022-09-23T08:38:57.354Z,1.67
2022-09-23T08:41:34.151Z,1.40
2022-09-23T08:44:05.941Z,1.30
2022-09-23T08:46:38.622Z,1.77
2022-09-23T08:49:07.629Z,1.60
2022-09-23T08:51:41.208Z,2.20
2022-09-23T08:54:11.212Z,1.70
2022-09-23T08:56:39.861Z,1.57
2022-09-23T08:59:13.879Z,1.43
2022-09-23T09:01:45.405Z,1.60
2022-09-23T09:04:19.361Z,1.67
2022-09-23T09:06:54.246Z,1.40
2022-09-23T09:09:29.546Z,1.67
2022-09-23T09:12:03.991Z,1.80
2022-09-23T09:14:38.228Z,1.70
2022-09-23T09:17:08.956Z,1.40
2022-09-23T09:19:52.124Z,1.53
2022-09-23T09:22:28.111Z,1.80
2022-09-23T09:25:01.795Z,1.70
2022-09-23T09:27:29.770Z,1.83
2022-09-23T09:29:59.285Z,1.87
2022-09-23T09:32:38.196Z,1.80
2022-09-23T09:35:17.093Z,1.70
2022-09-23T09:37:48.507Z,1.73
2022-09-23T09:40:18.017Z,1.90
2022-09-23T09:42:48.793Z,2.07
2022-09-23T09:45:26.285Z,1.73
2022-09-23T09:48:02.919Z,2.00
2022-09-23T09:50:49.120Z,1.80
2022-09-23T09:53:23.934Z,1.93
2022-09-23T09:56:04.548Z,1.80
2022-09-23T09:58:43.596Z,2.10
2022-09-23T10:01:20.355Z,1.90
2022-09-23T10:03:48.510Z,1.70
2022-09-23T10:06:20.498Z,1.87
2022-09-23T10:09:10.621Z,2.03
2022-09-23T10:11:39.601Z,2.23
2022-09-23T10:14:13.390Z,1.93
2022-09-23T10:16:42.526Z,2.20
2022-09-23T10:19:25.899Z,2.10
2022-09-23T10:21:59.845Z,2.10
2022-09-23T10:24:32.169Z,1.90
2022-09-23T10:27:02.937Z,2.00
2022-09-23T10:29:32.469Z,2.10
2022-09-23T10:32:25.534Z,1.90
2022-09-23T10:34:55.530Z,1.97
2022-09-23T10:37:30.979Z,1.77
2022-09-23T10:40:18.460Z,1.43
2022-09-23T10:43:13.296Z,2.00
2022-09-23T10:45:59.170Z,1.90
2022-09-23T10:48:36.892Z,2.00
2022-09-23T10:51:14.453Z,1.80
2022-09-23T10:53:54.648Z,2.20
2022-09-23T10:56:34.735Z,2.03
2022-09-23T10:59:17.908Z,1.70
2022-09-23T11:01:52.511Z,1.80
2022-09-23T11:05:04.745Z,2.07
2022-09-23T11:07:37.466Z,1.67
2022-09-23T11:10:47.401Z,1.60
2022-09-23T11:13:28.078Z,1.70
2022-09-23T11:16:06.357Z,1.70
2022-09-23T11:18:58.456Z,1.70
2022-09-23T11:21:52.124Z,1.70
2022-09-23T11:24:52.029Z,1.70
2022-09-23T11:27:31.809Z,1.90
2022-09-23T11:30:13.127Z,1.60
2022-09-23T11:33:17.863Z,2.10
2022-09-23T11:35:50.824Z,1.70
2022-09-23T11:38:26.239Z,1.60
2022-09-23T11:40:59.006Z,1.90
2022-09-23T11:43:28.728Z,1.67
2022-09-23T11:46:03.607Z,1.57
2022-09-23T11:48:35.067Z,1.70
2022-09-23T11:51:05.947Z,1.90
2022-09-23T11:53:41.715Z,1.50
2022-09-23T11:56:29.631Z,1.60
2022-09-23T11:59:08.231Z,1.40
2022-09-23T12:01:45.589Z,1.60
2022-09-23T12:04:23.283Z,1.53
2022-09-23T12:06:59.610Z,1.60
2022-09-23T12:09:57.146Z,1.50
2022-09-23T12:12:30.989Z,1.40
2022-09-23T12:15:05.649Z,1.70
2022-09-23T12:17:59.027Z,1.73
2022-09-23T12:20:44.466Z,1.67
2022-09-23T12:23:26.083Z,1.60
2022-09-23T12:25:57.171Z,1.60
2022-09-23T12:28:29.184Z,1.50
2022-09-23T12:31:00.023Z,1.63
2022-09-23T12:33:32.357Z,1.57
2022-09-23T12:36:04.795Z,1.30
2022-09-23T12:38:36.279Z,1.47
2022-09-23T12:41:20.596Z,1.57
2022-09-23T12:43:54.845Z,1.50
2022-09-23T12:46:25.822Z,1.70
2022-09-23T12:49:03.186Z,1.57
2022-09-23T12:51:34.038Z,1.63
2022-09-23T12:54:24.254Z,1.47
2022-09-23T12:57:12.232Z,1.43
2022-09-23T13:00:00.390Z,1.50
2022-09-23T13:02:32.633Z,1.57
2022-09-23T13:05:28.563Z,1.50
2022-09-23T13:08:01.871Z,1.20
2022-09-23T13:10:32.700Z,1.47
2022-09-23T13:13:02.505Z,1.50
2022-09-23T13:15:33.906Z,1.70
2022-09-23T13:18:41.388Z,1.30
2022-09-23T13:21:20.112Z,1.30
2022-09-23T13:24:18.358Z,1.50
2022-09-23T13:26:48.144Z,1.43
2022-09-23T13:29:20.268Z,1.10
2022-09-23T13:31:48.700Z,1.03
2022-09-23T13:34:20.573Z,1.13
2022-09-23T13:36:50.279Z,1.27
2022-09-23T13:39:24.112Z,1.10
2022-09-23T13:41:55.128Z,1.20
2022-09-23T13:44:23.629Z,1.33
2022-09-23T13:46:54.568Z,1.20
2022-09-23T13:49:25.381Z,1.17
2022-09-23T13:51:55.642Z,1.60
2022-09-23T13:54:31.090Z,1.33
2022-09-23T13:56:59.478Z,1.23
2022-09-23T13:59:29.265Z,1.20
2022-09-23T14:02:04.740Z,1.40
2022-09-23T14:04:32.943Z,1.33
2022-09-23T14:07:02.701Z,1.20
2022-09-23T14:09:32.242Z,1.10
2022-09-23T14:12:01.869Z,1.30
2022-09-23T14:14:31.290Z,1.20
2022-09-23T14:16:59.962Z,1.00
2022-09-23T14:19:27.846Z,1.20
2022-09-23T14:21:56.854Z,1.30
2022-09-23T14:24:31.696Z,1.30
2022-09-23T14:27:05.067Z,1.20
2022-09-23T14:29:35.401Z,1.47
2022-09-23T14:32:05.607Z,1.50
2022-09-23T14:34:45.112Z,1.40
2022-09-23T14:37:39.500Z,1.27
2022-09-23T14:40:13.473Z,1.47
2022-09-23T14:42:44.414Z,1.40
2022-09-23T14:45:16.538Z,1.30
2022-09-23T14:47:47.609Z,1.70
2022-09-23T14:50:35.993Z,1.43
2022-09-23T14:53:04.229Z,1.80
2022-09-23T14:55:33.328Z,1.37
2022-09-23T14:58:05.665Z,1.43
2022-09-23T15:00:33.443Z,1.20
2022-09-23T15:03:03.587Z,1.30
2022-09-23T15:05:40.354Z,1.30
2022-09-23T15:08:10.700Z,1.47
2022-09-23T15:10:42.133Z,1.40
2022-09-23T15:13:15.299Z,1.30
2022-09-23T15:15:43.628Z,1.30
2022-09-23T15:18:17.321Z,1.30
2022-09-23T15:20:50.487Z,1.40
2022-09-23T15:23:34.409Z,1.50
2022-09-23T15:26:07.465Z,1.53
2022-09-23T15:28:35.304Z,1.37
2022-09-23T15:31:03.090Z,1.80
2022-09-23T15:33:30.809Z,1.53
2022-09-23T15:35:59.312Z,1.90
2022-09-23T15:38:27.737Z,1.10
2022-09-23T15:40:55.563Z,1.73
2022-09-23T15:43:27.168Z,1.20
2022-09-23T15:45:57.181Z,1.50
2022-09-23T15:48:28.408Z,1.23
2022-09-23T15:50:56.237Z,1.27
2022-09-23T15:53:25.705Z,1.40
2022-09-23T15:55:54.113Z,1.37
2022-09-23T15:58:25.132Z,1.60
2022-09-23T16:00:56.788Z,1.63
2022-09-23T16:03:28.341Z,1.20
2022-09-23T16:05:58.074Z,1.50
2022-09-23T16:08:25.882Z,1.47
2022-09-23T16:10:54.888Z,1.40
2022-09-23T16:13:24.076Z,1.70
2022-09-23T16:15:51.922Z,1.70
2022-09-23T16:18:20.075Z,1.47
2022-09-23T16:20:49.414Z,1.40
2022-09-23T16:23:35.595Z,1.53
2022-09-23T16:26:05.892Z,1.40
2022-09-23T16:28:35.455Z,1.03
2022-09-23T16:31:03.202Z,1.70
2022-09-23T16:33:30.944Z,1.90
2022-09-23T16:36:00.698Z,1.97
2022-09-23T16:38:28.963Z,2.13
2022-09-23T16:40:59.370Z,2.20
2022-09-23T16:43:32.639Z,1.70
2022-09-23T16:46:01.878Z,2.17
2022-09-23T16:48:29.634Z,2.20
2022-09-23T16:50:57.361Z,2.23
2022-09-23T16:53:26.411Z,2.20
2022-09-23T16:55:54.210Z,2.20
2022-09-23T16:58:21.937Z,1.97
2022-09-23T17:01:07.475Z,2.20
2022-09-23T17:03:42.471Z,2.00
2022-09-23T17:06:12.184Z,2.37
2022-09-23T17:08:41.419Z,1.80
2022-09-23T17:11:11.644Z,1.90
2022-09-23T17:13:40.459Z,2.00
2022-09-23T17:16:08.220Z,2.33
2022-09-23T17:18:38.896Z,2.67
2022-09-23T17:21:08.557Z,2.10
2022-09-23T17:23:37.024Z,1.90
2022-09-23T17:26:05.920Z,1.70
2022-09-23T17:28:33.665Z,2.00
2022-09-23T17:31:03.768Z,1.70
2022-09-23T17:33:35.171Z,2.13
2022-09-23T17:36:08.257Z,1.77
2022-09-23T17:38:36.294Z,1.80
2022-09-23T17:41:04.898Z,2.10
2022-09-23T17:43:33.365Z,2.00
2022-09-23T17:46:06.573Z,1.87
2022-09-23T17:48:36.429Z,3.10
2022-09-23T17:51:08.144Z,2.20
2022-09-23T17:53:38.387Z,1.80
2022-09-23T17:56:08.125Z,1.60
2022-09-23T17:58:37.267Z,1.63
2022-09-23T18:01:05.544Z,1.30
2022-09-23T18:03:33.403Z,1.73
2022-09-23T18:06:10.424Z,1.50
2022-09-23T18:08:38.450Z,1.80
2022-09-23T18:11:14.114Z,1.73
2022-09-23T18:13:42.011Z,1.63
2022-09-23T18:16:09.870Z,2.20
2022-09-23T18:18:37.591Z,2.50
2022-09-23T18:21:06.737Z,2.87
2022-09-23T18:23:37.221Z,2.60
2022-09-23T18:26:05.468Z,2.80
2022-09-23T18:28:35.001Z,2.63
2022-09-23T18:31:02.865Z,2.67
2022-09-23T18:33:30.564Z,3.10
2022-09-23T18:36:01.097Z,4.90
2022-09-23T18:38:28.807Z,6.67
2022-09-23T18:41:00.237Z,8.13
2022-09-23T18:43:37.453Z,9.00
2022-09-23T18:46:11.746Z,7.00
2022-09-23T18:48:57.165Z,6.63
2022-09-23T18:51:28.437Z,7.17
2022-09-23T18:53:58.495Z,8.73
2022-09-23T18:56:33.605Z,7.13
2022-09-23T18:59:01.500Z,6.00
2022-09-23T19:01:29.319Z,5.27
2022-09-23T19:03:57.740Z,4.83
2022-09-23T19:06:26.065Z,5.20
2022-09-23T19:08:55.278Z,4.50
2022-09-23T19:11:23.854Z,3.37
2022-09-23T19:13:55.832Z,3.57
2022-09-23T19:16:27.197Z,3.80
2022-09-23T19:18:54.945Z,3.60
2022-09-23T19:21:24.131Z,3.70
2022-09-23T19:23:53.426Z,4.00
2022-09-23T19:26:23.099Z,4.00
2022-09-23T19:28:51.706Z,3.93
2022-09-23T19:31:23.345Z,4.57
2022-09-23T19:33:57.949Z,4.20
2022-09-23T19:36:28.359Z,3.93
2022-09-23T19:38:57.636Z,4.07
2022-09-23T19:41:26.002Z,4.00
2022-09-23T19:43:54.195Z,4.13
2022-09-23T19:46:23.666Z,4.43
2022-09-23T19:48:51.610Z,4.80
2022-09-23T19:51:19.389Z,4.90
2022-09-23T19:53:47.219Z,4.83
2022-09-23T19:56:17.734Z,5.47
2022-09-23T19:58:47.202Z,4.83
2022-09-23T20:01:16.273Z,4.63
2022-09-23T20:03:46.945Z,4.90
2022-09-23T20:06:15.383Z,5.00
2022-09-23T20:08:43.578Z,5.23
2022-09-23T20:11:13.244Z,4.80
2022-09-23T20:13:42.490Z,5.43
2022-09-23T20:16:12.095Z,5.63
2022-09-23T20:18:40.411Z,5.23
2022-09-23T20:21:11.954Z,4.90
2022-09-23T20:23:39.796Z,5.00
2022-09-23T20:26:25.216Z,5.13
2022-09-23T20:28:53.321Z,4.97
2022-09-23T20:31:22.677Z,5.53
2022-09-23T20:33:51.385Z,4.67
2022-09-23T20:36:20.467Z,5.57
2022-09-23T20:38:48.332Z,5.30
2022-09-23T20:41:17.209Z,5.37
2022-09-23T20:43:44.896Z,4.83
2022-09-23T20:46:15.263Z,4.80
2022-09-23T20:48:43.209Z,5.10
2022-09-23T20:51:11.194Z,5.30
2022-09-23T20:53:40.239Z,4.53
2022-09-23T20:56:07.969Z,4.77
2022-09-23T20:58:37.253Z,5.00
2022-09-23T21:01:10.471Z,5.20
2022-09-23T21:03:39.878Z,4.90
2022-09-23T21:06:08.748Z,4.77
2022-09-23T21:08:38.178Z,4.43
2022-09-23T21:11:10.224Z,4.27
2022-09-23T21:13:38.684Z,4.30
2022-09-23T21:16:08.286Z,4.37
2022-09-23T21:18:37.203Z,4.10
2022-09-23T21:21:06.911Z,4.53
2022-09-23T21:23:35.916Z,4.50
2022-09-23T21:26:04.274Z,4.17
2022-09-23T21:28:34.609Z,4.47
2022-09-23T21:31:04.024Z,4.87
2022-09-23T21:33:31.856Z,4.67
2022-09-23T21:36:03.393Z,4.67
2022-09-23T21:38:31.370Z,5.30
2022-09-23T21:40:59.908Z,4.27
2022-09-23T21:43:32.400Z,4.73
2022-09-23T21:46:03.075Z,4.10
2022-09-23T21:48:34.157Z,4.00
2022-09-23T21:51:03.744Z,4.40
2022-09-23T21:53:33.574Z,4.70
2022-09-23T21:56:03.415Z,4.63
2022-09-23T21:58:31.754Z,4.30
2022-09-23T22:01:01.145Z,5.13
2022-09-23T22:03:29.266Z,5.27
2022-09-23T22:06:04.998Z,5.47
2022-09-23T22:08:36.660Z,5.67
2022-09-23T22:11:06.779Z,5.27
2022-09-23T22:13:34.673Z,5.63
2022-09-23T22:16:06.008Z,5.67
2022-09-23T22:18:33.806Z,6.60
2022-09-23T22:21:01.531Z,6.17
2022-09-23T22:23:29.238Z,5.93
2022-09-23T22:26:03.041Z,6.20
2022-09-23T22:28:50.557Z,6.20
2022-09-23T22:31:37.296Z,5.33
2022-09-23T22:34:05.146Z,5.50
2022-09-23T22:36:32.925Z,5.63
2022-09-23T22:39:00.631Z,5.63
2022-09-23T22:41:28.374Z,5.97
2022-09-23T22:43:56.868Z,6.50
2022-09-23T22:46:25.954Z,5.87
2022-09-23T22:48:53.765Z,6.73
2022-09-23T22:51:22.259Z,6.13
2022-09-23T22:53:50.127Z,6.30
2022-09-23T22:56:17.866Z,6.13
2022-09-23T22:58:45.611Z,5.87
2022-09-23T23:01:13.403Z,6.07
2022-09-23T23:03:42.667Z,5.33
2022-09-23T23:06:10.941Z,5.43
2022-09-23T23:08:38.771Z,5.27
2022-09-23T23:11:09.913Z,5.80
2022-09-23T23:13:41.783Z,5.30
2022-09-23T23:16:11.689Z,5.13
2022-09-23T23:18:43.208Z,5.60
2022-09-23T23:21:13.460Z,5.90
2022-09-23T23:23:43.902Z,5.20
2022-09-23T23:26:13.237Z,5.10
2022-09-23T23:28:41.205Z,5.80
2022-09-23T23:31:11.082Z,5.83
2022-09-23T23:33:39.206Z,5.33
2022-09-23T23:36:09.398Z,5.53
2022-09-23T23:38:37.932Z,5.33
2022-09-23T23:41:07.083Z,5.27
2022-09-23T23:43:34.771Z,5.10
2022-09-23T23:46:02.503Z,5.10
2022-09-23T23:48:30.256Z,5.33
2022-09-23T23:51:00.095Z,6.53
2022-09-23T23:53:32.145Z,5.53
2022-09-23T23:56:02.076Z,5.07
2022-09-23T23:58:30.162Z,4.63
